Time;durP1;ratioP1;P1;durP2;ratioP2;P2;SDS_P1;SDS_P2;PMS_P1;PMS_P2;Temp;Humidity;BMP_temperature;BMP_pressure;BME280_temperature;BME280_humidity;BME280_pressure;Samples;Min_cycle;Max_cycle;Signal;HPM_P1;HPM_P2
2023/08/14 00:01:07;;;;;;;;;;;22.70;81.10;;;;;;4139664;28;20383;-43
2023/08/14 00:03:48;;;;;;;;;;;22.80;80.30;;;;;;4171221;28;20282;-43
2023/08/14 00:06:29;;;;;;;;;;;22.70;80.20;;;;;;4163137;28;19936;-44
2023/08/14 00:09:09;;;;;;;;;;;22.70;80.20;;;;;;4153765;28;19951;-45
2023/08/14 00:11:50;;;;;;;;;;;22.70;80.20;;;;;;4138115;28;20071;-44
2023/08/14 00:14:31;;;;;;;;;;;22.70;80.20;;;;;;4138688;28;19933;-43
2023/08/14 00:17:13;;;;;;;;;;;22.70;80.20;;;;;;4152237;28;19936;-42
2023/08/14 00:19:53;;;;;;;;;;;22.70;80.20;;;;;;4154492;28;19936;-44
2023/08/14 00:22:34;;;;;;;;;;;22.70;80.20;;;;;;4153630;28;19933;-48
2023/08/14 00:25:15;;;;;;;;;;;22.70;80.20;;;;;;4138143;28;20400;-43
2023/08/14 00:27:56;;;;;;;;;;;22.70;80.20;;;;;;4154176;28;20068;-45
2023/08/14 00:30:36;;;;;;;;;;;22.60;80.10;;;;;;4170102;28;19967;-45
2023/08/14 00:33:19;;;;;;;;;;;22.60;80.10;;;;;;4170811;28;19936;-44
2023/08/14 00:36:00;;;;;;;;;;;22.60;80.10;;;;;;4169450;28;19967;-44
2023/08/14 00:38:41;;;;;;;;;;;22.60;80.10;;;;;;4136899;28;19976;-45
2023/08/14 00:41:23;;;;;;;;;;;22.60;80.10;;;;;;4138462;28;19932;-43
2023/08/14 00:44:04;;;;;;;;;;;22.60;80.10;;;;;;4130435;28;19936;-44
2023/08/14 00:46:45;;;;;;;;;;;22.60;80.10;;;;;;4136221;28;19932;-46
2023/08/14 00:49:27;;;;;;;;;;;22.60;80.10;;;;;;4155563;28;20034;-47
2023/08/14 00:52:08;;;;;;;;;;;22.60;80.10;;;;;;4153424;28;20647;-43
2023/08/14 00:54:49;;;;;;;;;;;22.60;80.10;;;;;;4154838;28;20395;-44
2023/08/14 00:57:30;;;;;;;;;;;22.50;80.10;;;;;;4146652;28;19933;-45
2023/08/14 01:00:12;;;;;;;;;;;22.50;80.00;;;;;;4181438;28;20331;-44
2023/08/14 01:02:52;;;;;;;;;;;22.50;80.10;;;;;;4158339;28;19931;-45
2023/08/14 01:05:35;;;;;;;;;;;22.50;80.00;;;;;;4164032;28;20060;-43
2023/08/14 01:08:16;;;;;;;;;;;22.50;80.10;;;;;;4142956;28;19932;-44
2023/08/14 01:11:00;;;;;;;;;;;22.50;80.10;;;;;;4170839;28;19979;-45
2023/08/14 01:13:43;;;;;;;;;;;22.50;80.10;;;;;;4170635;28;19931;-43
2023/08/14 01:16:26;;;;;;;;;;;22.40;80.00;;;;;;4156971;28;19936;-45
2023/08/14 01:19:09;;;;;;;;;;;22.50;80.10;;;;;;4139460;28;19932;-44
2023/08/14 01:21:56;;;;;;;;;;;22.40;80.00;;;;;;4148631;28;19967;-43
2023/08/14 01:24:42;;;;;;;;;;;22.40;80.00;;;;;;4153932;28;20098;-47
2023/08/14 01:27:26;;;;;;;;;;;22.40;80.00;;;;;;4140232;28;19952;-44
2023/08/14 01:30:09;;;;;;;;;;;22.40;80.10;;;;;;4137836;28;19934;-46
2023/08/14 01:32:50;;;;;;;;;;;22.40;80.10;;;;;;4137364;28;19936;-46
2023/08/14 01:35:33;;;;;;;;;;;22.40;80.10;;;;;;4141711;28;19932;-45
2023/08/14 01:38:19;;;;;;;;;;;22.40;80.10;;;;;;4150437;28;19936;-47
2023/08/14 01:41:04;;;;;;;;;;;22.40;80.10;;;;;;4153221;28;19932;-45
2023/08/14 01:43:48;;;;;;;;;;;22.40;80.00;;;;;;4140712;28;20312;-45
2023/08/14 01:46:32;;;;;;;;;;;22.40;80.10;;;;;;4154686;28;19932;-44
2023/08/14 01:49:15;;;;;;;;;;;22.40;80.00;;;;;;4153795;28;19932;-44
2023/08/14 01:51:56;;;;;;;;;;;22.30;79.90;;;;;;4139782;28;19979;-45
2023/08/14 01:54:37;;;;;;;;;;;22.30;79.90;;;;;;4158249;28;19935;-45
2023/08/14 01:57:18;;;;;;;;;;;22.30;79.90;;;;;;4143310;28;20476;-44
2023/08/14 02:00:01;;;;;;;;;;;22.30;80.00;;;;;;4142868;28;19936;-45
2023/08/14 02:02:52;;;;;;;;;;;22.30;80.00;;;;;;4143978;28;19936;-43
2023/08/14 02:05:33;;;;;;;;;;;22.30;79.90;;;;;;4172365;28;20366;-47
2023/08/14 02:08:14;;;;;;;;;;;22.30;80.00;;;;;;4157688;28;19944;-43
2023/08/14 02:10:55;;;;;;;;;;;22.30;80.00;;;;;;4156345;28;20295;-46
2023/08/14 02:13:35;;;;;;;;;;;22.30;80.00;;;;;;4147241;28;20475;-48
2023/08/14 02:16:18;;;;;;;;;;;22.20;80.00;;;;;;4144427;28;19936;-42
2023/08/14 02:18:58;;;;;;;;;;;22.20;80.00;;;;;;4156623;28;19932;-44
2023/08/14 02:21:39;;;;;;;;;;;22.20;80.00;;;;;;4156899;28;19935;-44
2023/08/14 02:24:20;;;;;;;;;;;22.20;80.00;;;;;;4143920;28;19932;-45
2023/08/14 02:27:01;;;;;;;;;;;22.20;80.00;;;;;;4142343;28;20437;-43
2023/08/14 02:29:41;;;;;;;;;;;22.20;80.10;;;;;;4156840;28;20328;-45
2023/08/14 02:32:23;;;;;;;;;;;22.20;80.20;;;;;;4154965;28;19952;-43
2023/08/14 02:35:07;;;;;;;;;;;22.20;80.20;;;;;;4156388;28;20070;-43
2023/08/14 02:37:47;;;;;;;;;;;22.20;80.20;;;;;;4145774;28;19932;-45
2023/08/14 02:40:28;;;;;;;;;;;22.20;80.20;;;;;;4155633;28;19935;-45
2023/08/14 02:43:09;;;;;;;;;;;22.10;80.20;;;;;;4152365;28;19932;-48
2023/08/14 02:45:49;;;;;;;;;;;22.10;80.30;;;;;;4171968;28;19935;-44
2023/08/14 02:48:32;;;;;;;;;;;22.10;80.30;;;;;;4159938;28;19977;-43
2023/08/14 02:51:14;;;;;;;;;;;22.10;80.30;;;;;;4139374;28;20384;-47
2023/08/14 02:53:55;;;;;;;;;;;22.10;80.40;;;;;;4157514;28;19931;-44
2023/08/14 02:56:36;;;;;;;;;;;22.10;80.30;;;;;;4148523;28;19982;-44
2023/08/14 02:59:17;;;;;;;;;;;22.10;80.40;;;;;;4171908;28;19971;-44
2023/08/14 03:01:59;;;;;;;;;;;22.10;80.40;;;;;;4160389;28;19936;-43
2023/08/14 03:04:41;;;;;;;;;;;22.10;80.50;;;;;;4156167;28;20300;-44
2023/08/14 03:07:22;;;;;;;;;;;22.10;80.60;;;;;;4139721;28;19983;-40
2023/08/14 03:10:03;;;;;;;;;;;22.10;80.60;;;;;;4154184;28;20345;-41
2023/08/14 03:12:44;;;;;;;;;;;22.10;80.60;;;;;;4163995;28;19943;-44
2023/08/14 03:15:24;;;;;;;;;;;22.00;80.60;;;;;;4155651;28;19943;-45
2023/08/14 03:18:05;;;;;;;;;;;22.10;80.70;;;;;;4128604;28;19936;-48
2023/08/14 03:20:47;;;;;;;;;;;22.00;80.60;;;;;;4126183;28;20092;-43
2023/08/14 03:23:28;;;;;;;;;;;22.00;80.60;;;;;;4153598;28;20399;-46
2023/08/14 03:26:09;;;;;;;;;;;22.00;80.70;;;;;;4154274;28;19967;-47
2023/08/14 03:28:50;;;;;;;;;;;22.00;80.70;;;;;;4155522;28;19932;-44
2023/08/14 03:31:33;;;;;;;;;;;22.00;80.70;;;;;;4155749;28;19932;-45
2023/08/14 03:34:15;;;;;;;;;;;22.00;80.70;;;;;;4128444;28;20037;-43
2023/08/14 03:36:58;;;;;;;;;;;22.00;80.70;;;;;;4133476;28;19951;-44
2023/08/14 03:39:38;;;;;;;;;;;22.00;81.60;;;;;;4139030;28;19962;-45
2023/08/14 03:42:20;;;;;;;;;;;22.00;80.80;;;;;;4126605;28;19935;-45
2023/08/14 03:45:01;;;;;;;;;;;21.90;80.70;;;;;;4135002;28;19963;-44
2023/08/14 03:47:41;;;;;;;;;;;21.90;80.60;;;;;;4145360;28;19932;-46
2023/08/14 03:50:23;;;;;;;;;;;21.90;80.60;;;;;;4141261;28;19995;-45
2023/08/14 03:53:05;;;;;;;;;;;21.90;80.60;;;;;;4155079;28;19932;-40
2023/08/14 03:55:46;;;;;;;;;;;21.90;80.60;;;;;;4154813;28;20071;-40
2023/08/14 03:58:26;;;;;;;;;;;21.90;80.60;;;;;;4142414;28;19948;-40
2023/08/14 04:01:08;;;;;;;;;;;21.90;80.60;;;;;;4143747;28;19936;-42
2023/08/14 04:03:49;;;;;;;;;;;21.90;80.60;;;;;;4155121;28;19936;-46
2023/08/14 04:06:29;;;;;;;;;;;21.90;80.60;;;;;;4153877;28;19932;-42
2023/08/14 04:09:12;;;;;;;;;;;21.90;80.60;;;;;;4141977;28;20491;-41
2023/08/14 04:11:53;;;;;;;;;;;21.90;80.70;;;;;;4171318;28;19950;-39
2023/08/14 04:14:34;;;;;;;;;;;21.90;80.60;;;;;;4169962;28;20303;-40
2023/08/14 04:17:15;;;;;;;;;;;21.90;80.70;;;;;;4152952;28;20006;-40
2023/08/14 04:19:56;;;;;;;;;;;21.90;80.60;;;;;;4139977;28;19932;-41
2023/08/14 04:22:37;;;;;;;;;;;21.80;80.60;;;;;;4150427;28;20495;-41
2023/08/14 04:25:20;;;;;;;;;;;21.80;80.70;;;;;;4154458;28;19933;-41
2023/08/14 04:28:00;;;;;;;;;;;21.80;80.70;;;;;;4156060;28;20392;-40
2023/08/14 04:30:41;;;;;;;;;;;21.80;80.70;;;;;;4120040;28;19932;-40
2023/08/14 04:33:22;;;;;;;;;;;21.80;80.70;;;;;;4125315;28;20060;-40
2023/08/14 04:36:03;;;;;;;;;;;21.80;80.70;;;;;;4141133;28;19936;-39
2023/08/14 04:38:45;;;;;;;;;;;21.80;80.70;;;;;;4170477;28;19943;-40
2023/08/14 04:41:27;;;;;;;;;;;21.80;80.70;;;;;;4170890;28;20386;-42
2023/08/14 04:44:08;;;;;;;;;;;21.80;80.70;;;;;;4170983;28;19978;-42
2023/08/14 04:46:51;;;;;;;;;;;21.80;80.70;;;;;;4138423;28;19932;-43
2023/08/14 04:49:40;;;;;;;;;;;21.80;80.70;;;;;;4144374;28;19933;-44
2023/08/14 04:52:22;;;;;;;;;;;21.80;80.70;;;;;;4140898;28;19936;-44
2023/08/14 04:55:05;;;;;;;;;;;21.80;80.70;;;;;;4157116;28;20347;-44
2023/08/14 04:57:49;;;;;;;;;;;21.80;81.70;;;;;;4146395;28;19936;-45
2023/08/14 05:00:30;;;;;;;;;;;21.70;80.70;;;;;;4138388;28;19936;-46
2023/08/14 05:03:13;;;;;;;;;;;21.70;80.70;;;;;;4128736;28;20519;-44
2023/08/14 05:05:54;;;;;;;;;;;21.70;80.70;;;;;;4148457;28;20285;-45
2023/08/14 05:08:35;;;;;;;;;;;21.70;80.80;;;;;;4153645;28;20300;-43
2023/08/14 05:11:16;;;;;;;;;;;21.80;81.70;;;;;;4141053;28;19936;-43
2023/08/14 05:13:58;;;;;;;;;;;21.80;81.10;;;;;;4153320;28;19948;-45
2023/08/14 05:16:41;;;;;;;;;;;21.80;81.30;;;;;;4163285;28;24518;-41
2023/08/14 05:19:23;;;;;;;;;;;21.80;81.30;;;;;;4152528;28;19939;-43
2023/08/14 05:22:04;;;;;;;;;;;21.80;81.20;;;;;;4146403;28;19933;-44
2023/08/14 05:24:45;;;;;;;;;;;21.80;81.20;;;;;;4152193;28;20288;-42
2023/08/14 05:27:25;;;;;;;;;;;21.80;81.20;;;;;;4152859;28;19935;-47
2023/08/14 05:30:08;;;;;;;;;;;21.80;81.10;;;;;;4155191;28;20342;-42
2023/08/14 05:32:49;;;;;;;;;;;21.80;81.10;;;;;;4156911;28;19948;-43
2023/08/14 05:35:30;;;;;;;;;;;21.80;81.10;;;;;;4156511;28;19940;-43
2023/08/14 05:38:12;;;;;;;;;;;21.80;81.10;;;;;;4141988;28;19933;-42
2023/08/14 05:40:53;;;;;;;;;;;21.80;81.10;;;;;;4155618;28;20400;-41
2023/08/14 05:43:33;;;;;;;;;;;21.70;81.10;;;;;;4172531;28;19985;-43
2023/08/14 05:46:16;;;;;;;;;;;21.70;81.10;;;;;;4163695;28;19936;-42
2023/08/14 05:48:56;;;;;;;;;;;21.80;81.10;;;;;;4154066;28;20319;-42
2023/08/14 05:51:37;;;;;;;;;;;21.80;81.10;;;;;;4138466;28;20099;-43
2023/08/14 05:54:18;;;;;;;;;;;21.80;81.10;;;;;;4139632;28;20377;-38
2023/08/14 05:56:59;;;;;;;;;;;21.80;82.00;;;;;;4138768;28;19936;-38
2023/08/14 05:59:39;;;;;;;;;;;21.80;81.00;;;;;;4140996;28;19936;-38
2023/08/14 06:02:21;;;;;;;;;;;21.80;81.00;;;;;;4149529;28;19936;-40
2023/08/14 06:05:02;;;;;;;;;;;21.80;81.20;;;;;;4147263;28;19937;-38
2023/08/14 06:07:42;;;;;;;;;;;21.80;81.30;;;;;;4153759;28;19933;-38
2023/08/14 06:10:23;;;;;;;;;;;21.80;81.50;;;;;;4155509;28;19936;-38
2023/08/14 06:13:04;;;;;;;;;;;21.80;81.60;;;;;;4139656;28;19937;-38
2023/08/14 06:15:45;;;;;;;;;;;21.80;81.60;;;;;;4140381;28;20000;-37
2023/08/14 06:18:27;;;;;;;;;;;21.80;81.80;;;;;;4140205;28;20064;-38
2023/08/14 06:21:08;;;;;;;;;;;21.80;81.70;;;;;;4139373;28;19936;-38
2023/08/14 06:23:48;;;;;;;;;;;21.80;81.70;;;;;;4139201;28;19972;-37
2023/08/14 06:26:29;;;;;;;;;;;21.80;81.70;;;;;;4131572;28;20495;-38
2023/08/14 06:29:10;;;;;;;;;;;21.80;81.70;;;;;;4155723;28;20292;-38
2023/08/14 06:31:50;;;;;;;;;;;21.80;81.70;;;;;;4156159;28;19932;-45
2023/08/14 06:34:33;;;;;;;;;;;21.80;81.70;;;;;;4154806;28;19982;-42
2023/08/14 06:37:14;;;;;;;;;;;21.80;81.70;;;;;;4142725;28;19951;-38
2023/08/14 06:39:55;;;;;;;;;;;21.80;81.70;;;;;;4155940;28;19944;-38
2023/08/14 06:42:36;;;;;;;;;;;21.80;81.70;;;;;;4153605;28;19982;-42
2023/08/14 06:45:17;;;;;;;;;;;21.80;82.60;;;;;;4155555;28;19936;-38
2023/08/14 06:47:58;;;;;;;;;;;21.80;81.80;;;;;;4156263;28;19932;-38
2023/08/14 06:50:40;;;;;;;;;;;21.80;81.80;;;;;;4151880;28;20292;-38
2023/08/14 06:53:21;;;;;;;;;;;21.80;82.80;;;;;;4144693;28;19931;-38
2023/08/14 06:56:02;;;;;;;;;;;21.80;81.90;;;;;;4154836;28;20054;-38
2023/08/14 06:58:43;;;;;;;;;;;21.80;81.90;;;;;;4153563;28;19936;-43
2023/08/14 07:01:24;;;;;;;;;;;21.80;82.00;;;;;;4155701;28;20059;-38
2023/08/14 07:04:05;;;;;;;;;;;21.80;82.00;;;;;;4155543;28;19936;-38
2023/08/14 07:06:47;;;;;;;;;;;21.80;82.10;;;;;;4155824;28;19978;-37
2023/08/14 07:09:28;;;;;;;;;;;21.80;82.10;;;;;;4154888;28;20022;-37
2023/08/14 07:12:09;;;;;;;;;;;21.80;82.10;;;;;;4153098;28;19936;-38
2023/08/14 07:14:49;;;;;;;;;;;21.80;82.30;;;;;;4171338;28;19955;-38
2023/08/14 07:17:31;;;;;;;;;;;21.80;82.50;;;;;;4157384;28;19932;-43
2023/08/14 07:20:13;;;;;;;;;;;21.80;82.60;;;;;;4154751;28;20311;-38
2023/08/14 07:22:55;;;;;;;;;;;21.80;82.60;;;;;;4154999;28;19936;-43
2023/08/14 07:25:36;;;;;;;;;;;21.90;82.60;;;;;;4154452;28;19975;-43
2023/08/14 07:28:18;;;;;;;;;;;21.90;82.60;;;;;;4155938;28;19932;-42
2023/08/14 07:30:59;;;;;;;;;;;21.90;82.60;;;;;;4142799;28;20062;-44
2023/08/14 07:33:40;;;;;;;;;;;21.90;82.70;;;;;;4155322;28;20074;-41
2023/08/14 07:36:21;;;;;;;;;;;21.90;82.80;;;;;;4150077;28;20023;-41
2023/08/14 07:39:03;;;;;;;;;;;22.00;82.90;;;;;;4126492;28;19949;-41
2023/08/14 07:41:44;;;;;;;;;;;22.00;83.10;;;;;;4138115;28;20395;-42
2023/08/14 07:44:25;;;;;;;;;;;22.00;83.30;;;;;;4138701;28;20403;-41
2023/08/14 07:47:05;;;;;;;;;;;22.10;83.30;;;;;;4137764;28;20495;-41
2023/08/14 07:49:46;;;;;;;;;;;22.10;83.30;;;;;;4148601;28;19936;-41
2023/08/14 07:52:27;;;;;;;;;;;22.20;83.40;;;;;;4152564;28;19931;-42
2023/08/14 07:55:09;;;;;;;;;;;22.20;83.40;;;;;;4140032;28;19932;-42
2023/08/14 07:57:50;;;;;;;;;;;22.20;83.40;;;;;;4138029;28;19932;-38
2023/08/14 08:00:31;;;;;;;;;;;22.20;83.50;;;;;;4160755;28;19974;-38
2023/08/14 08:03:11;;;;;;;;;;;22.30;83.70;;;;;;4141346;28;20393;-38
2023/08/14 08:05:52;;;;;;;;;;;22.30;83.80;;;;;;4138816;28;19995;-41
2023/08/14 08:08:33;;;;;;;;;;;22.30;83.70;;;;;;4137643;28;19936;-42
2023/08/14 08:11:16;;;;;;;;;;;22.30;83.70;;;;;;4170741;28;19935;-41
2023/08/14 08:13:56;;;;;;;;;;;22.30;83.60;;;;;;4170047;28;20021;-42
2023/08/14 08:16:38;;;;;;;;;;;22.30;83.60;;;;;;4170338;28;19967;-42
2023/08/14 08:19:19;;;;;;;;;;;22.30;83.60;;;;;;4155718;28;20028;-42
2023/08/14 08:22:00;;;;;;;;;;;22.30;83.60;;;;;;4153187;28;20309;-41
2023/08/14 08:24:41;;;;;;;;;;;22.30;83.70;;;;;;4153433;28;19952;-42
2023/08/14 08:27:23;;;;;;;;;;;22.30;84.50;;;;;;4141104;28;19948;-44
2023/08/14 08:30:04;;;;;;;;;;;22.30;83.60;;;;;;4138113;28;19964;-42
2023/08/14 08:32:45;;;;;;;;;;;22.30;83.60;;;;;;4141353;28;19940;-42
2023/08/14 08:35:26;;;;;;;;;;;22.40;84.60;;;;;;4170773;28;19974;-42
2023/08/14 08:38:07;;;;;;;;;;;22.30;83.70;;;;;;4158457;28;19932;-43
2023/08/14 08:40:48;;;;;;;;;;;22.40;83.80;;;;;;4155494;28;20371;-42
2023/08/14 08:43:31;;;;;;;;;;;22.40;84.70;;;;;;4170644;28;19936;-42
2023/08/14 08:46:13;;;;;;;;;;;22.40;83.90;;;;;;4170803;28;20478;-43
2023/08/14 08:48:54;;;;;;;;;;;22.50;84.10;;;;;;4170269;28;19935;-42
2023/08/14 08:51:35;;;;;;;;;;;22.50;84.00;;;;;;4159733;28;19952;-42
2023/08/14 08:54:16;;;;;;;;;;;22.60;84.20;;;;;;4138309;28;20503;-42
2023/08/14 08:56:57;;;;;;;;;;;22.60;84.10;;;;;;4138041;28;19937;-42
2023/08/14 08:59:40;;;;;;;;;;;22.60;84.90;;;;;;4138375;28;20023;-42
2023/08/14 09:02:21;;;;;;;;;;;22.70;84.00;;;;;;4141041;28;20076;-43
2023/08/14 09:05:02;;;;;;;;;;;22.70;83.90;;;;;;4161494;28;19990;-43
2023/08/14 09:07:44;;;;;;;;;;;22.80;83.80;;;;;;4174231;28;20084;-44
2023/08/14 09:10:26;;;;;;;;;;;22.80;83.70;;;;;;4174319;28;20398;-42
2023/08/14 09:13:06;;;;;;;;;;;22.80;83.50;;;;;;4150837;28;19936;-43
2023/08/14 09:15:52;;;;;;;;;;;22.90;83.30;;;;;;4154513;28;19975;-44
2023/08/14 09:18:33;;;;;;;;;;;22.80;82.80;;;;;;4144515;28;19932;-42
2023/08/14 09:21:13;;;;;;;;;;;22.90;83.40;;;;;;4165563;28;19982;-43
2023/08/14 09:23:55;;;;;;;;;;;22.90;82.30;;;;;;4153410;28;19987;-43
2023/08/14 09:26:35;;;;;;;;;;;22.90;82.10;;;;;;4140960;28;20067;-44
2023/08/14 09:29:17;;;;;;;;;;;22.90;82.00;;;;;;4158082;28;19932;-43
2023/08/14 09:32:01;;;;;;;;;;;22.90;82.80;;;;;;4155729;28;19931;-39
2023/08/14 09:34:42;;;;;;;;;;;22.90;81.90;;;;;;4156394;28;19932;-38
2023/08/14 09:37:23;;;;;;;;;;;23.00;81.90;;;;;;4143425;28;20067;-38
2023/08/14 09:40:09;;;;;;;;;;;23.00;81.50;;;;;;4156554;28;19933;-38
2023/08/14 09:42:50;;;;;;;;;;;23.10;81.30;;;;;;4153093;28;20339;-38
2023/08/14 09:45:34;;;;;;;;;;;23.10;80.80;;;;;;4157212;28;19936;-39
2023/08/14 09:48:16;;;;;;;;;;;23.20;80.20;;;;;;4154430;28;19935;-38
2023/08/14 09:50:59;;;;;;;;;;;23.20;79.80;;;;;;4144889;28;19967;-38
2023/08/14 09:53:48;;;;;;;;;;;23.30;79.60;;;;;;4155801;28;20339;-38
2023/08/14 09:56:29;;;;;;;;;;;23.30;79.60;;;;;;4139065;28;20347;-38
2023/08/14 09:59:09;;;;;;;;;;;23.30;79.50;;;;;;4156797;28;20300;-38
2023/08/14 10:01:50;;;;;;;;;;;23.40;78.50;;;;;;4155055;28;19932;-38
2023/08/14 10:04:33;;;;;;;;;;;23.40;77.80;;;;;;4146051;28;19951;-38
2023/08/14 10:07:14;;;;;;;;;;;23.40;78.00;;;;;;4156752;28;20376;-39
2023/08/14 10:09:56;;;;;;;;;;;23.50;78.40;;;;;;4155604;28;20272;-38
2023/08/14 10:12:40;;;;;;;;;;;23.50;77.90;;;;;;4138629;28;20517;-38
2023/08/14 10:15:23;;;;;;;;;;;23.50;77.60;;;;;;4144893;28;19936;-38
2023/08/14 10:18:08;;;;;;;;;;;23.60;77.40;;;;;;4144377;28;19932;-38
2023/08/14 10:20:52;;;;;;;;;;;23.60;77.10;;;;;;4166573;28;19932;-38
2023/08/14 10:23:34;;;;;;;;;;;23.60;77.00;;;;;;4155500;28;20789;-38
2023/08/14 10:26:15;;;;;;;;;;;23.60;75.90;;;;;;4154198;28;20399;-39
2023/08/14 10:28:57;;;;;;;;;;;23.60;77.20;;;;;;4145955;28;20293;-38
2023/08/14 10:31:38;;;;;;;;;;;23.60;76.40;;;;;;4155567;28;20038;-37
2023/08/14 10:34:19;;;;;;;;;;;23.60;76.30;;;;;;4154100;28;20398;-38
2023/08/14 10:37:01;;;;;;;;;;;23.70;76.50;;;;;;4156186;28;19936;-38
2023/08/14 10:39:42;;;;;;;;;;;23.70;76.40;;;;;;4152555;28;20391;-38
2023/08/14 10:42:23;;;;;;;;;;;23.70;76.00;;;;;;4154976;28;19955;-38
2023/08/14 10:45:06;;;;;;;;;;;23.70;76.70;;;;;;4139617;28;20075;-41
2023/08/14 10:47:47;;;;;;;;;;;23.70;75.60;;;;;;4140002;28;19933;-38
2023/08/14 10:50:29;;;;;;;;;;;23.70;75.80;;;;;;4139249;28;19937;-38
2023/08/14 10:53:11;;;;;;;;;;;23.80;75.80;;;;;;4141796;28;19936;-39
2023/08/14 10:55:52;;;;;;;;;;;23.80;75.90;;;;;;4171616;28;19932;-38
2023/08/14 10:58:41;;;;;;;;;;;23.80;75.80;;;;;;4152665;28;20102;-39
2023/08/14 11:01:35;;;;;;;;;;;23.80;75.80;;;;;;4144988;28;19932;-38
2023/08/14 11:04:16;;;;;;;;;;;23.80;75.60;;;;;;4139278;28;19937;-39
2023/08/14 11:07:08;;;;;;;;;;;23.80;75.80;;;;;;4172611;28;19932;-38
2023/08/14 11:09:50;;;;;;;;;;;23.90;75.90;;;;;;4154059;28;19981;-39
2023/08/14 11:12:31;;;;;;;;;;;23.90;75.90;;;;;;4150088;28;19932;-39
2023/08/14 11:15:12;;;;;;;;;;;23.90;75.90;;;;;;4143336;28;19948;-38
2023/08/14 11:17:53;;;;;;;;;;;23.90;76.20;;;;;;4152098;28;19961;-38
2023/08/14 11:20:36;;;;;;;;;;;23.90;76.80;;;;;;4152410;28;19936;-38
2023/08/14 11:23:17;;;;;;;;;;;24.00;77.10;;;;;;4122846;28;19936;-38
2023/08/14 11:25:59;;;;;;;;;;;24.00;77.00;;;;;;4137845;28;19936;-38
2023/08/14 11:28:42;;;;;;;;;;;24.10;77.10;;;;;;4105397;28;19936;-38
2023/08/14 11:31:28;;;;;;;;;;;24.10;76.80;;;;;;4139816;28;19951;-42
2023/08/14 11:34:14;;;;;;;;;;;24.10;76.60;;;;;;4139092;28;20693;-45
2023/08/14 11:36:56;;;;;;;;;;;24.20;76.60;;;;;;4143092;28;20062;-44
2023/08/14 11:39:40;;;;;;;;;;;24.20;76.30;;;;;;4155335;28;19933;-47
2023/08/14 11:42:22;;;;;;;;;;;24.20;76.00;;;;;;4155388;28;19932;-43
2023/08/14 11:45:05;;;;;;;;;;;24.30;75.90;;;;;;4155073;28;20043;-42
2023/08/14 11:47:47;;;;;;;;;;;24.30;75.80;;;;;;4155222;28;20288;-38
2023/08/14 11:50:28;;;;;;;;;;;24.30;75.60;;;;;;4140378;28;19932;-37
2023/08/14 11:53:11;;;;;;;;;;;24.30;75.50;;;;;;4145966;28;19975;-38
2023/08/14 11:55:52;;;;;;;;;;;24.30;75.40;;;;;;4154467;28;20386;-39
2023/08/14 11:58:37;;;;;;;;;;;24.30;75.30;;;;;;4154531;28;19932;-39
2023/08/14 12:01:17;;;;;;;;;;;24.30;75.00;;;;;;4153581;28;19936;-39
2023/08/14 12:03:58;;;;;;;;;;;24.30;74.80;;;;;;4138751;28;19947;-39
2023/08/14 12:06:39;;;;;;;;;;;24.30;74.60;;;;;;4167478;28;19936;-39
2023/08/14 12:09:19;;;;;;;;;;;24.30;74.20;;;;;;4153673;28;19960;-38
2023/08/14 12:12:00;;;;;;;;;;;24.30;74.20;;;;;;4154712;28;20071;-38
2023/08/14 12:14:43;;;;;;;;;;;24.40;74.30;;;;;;4171492;28;19948;-38
2023/08/14 12:17:24;;;;;;;;;;;24.40;74.30;;;;;;4165665;28;20280;-38
2023/08/14 12:20:10;;;;;;;;;;;24.40;74.10;;;;;;4123010;28;20412;-37
2023/08/14 12:22:51;;;;;;;;;;;24.50;75.00;;;;;;4122937;28;20019;-39
2023/08/14 12:25:39;;;;;;;;;;;24.50;73.80;;;;;;4138720;28;19936;-38
2023/08/14 12:28:20;;;;;;;;;;;24.50;73.40;;;;;;4140191;28;19953;-37
2023/08/14 12:31:02;;;;;;;;;;;24.60;73.40;;;;;;4170714;28;20338;-38
2023/08/14 12:33:43;;;;;;;;;;;24.60;74.30;;;;;;4138004;28;20752;-38
2023/08/14 12:36:26;;;;;;;;;;;24.60;73.40;;;;;;4151128;28;19932;-42
2023/08/14 12:39:07;;;;;;;;;;;24.60;73.30;;;;;;4138278;28;19936;-43
2023/08/14 12:41:47;;;;;;;;;;;24.60;73.10;;;;;;4154429;28;19987;-42
2023/08/14 12:44:29;;;;;;;;;;;24.60;72.90;;;;;;4154824;28;20299;-42
2023/08/14 12:47:11;;;;;;;;;;;24.70;72.90;;;;;;4137560;28;20445;-38
2023/08/14 12:49:52;;;;;;;;;;;24.70;72.70;;;;;;4138328;28;20292;-37
2023/08/14 12:52:33;;;;;;;;;;;24.70;72.50;;;;;;4134062;28;20064;-37
2023/08/14 12:55:14;;;;;;;;;;;24.70;72.40;;;;;;4154494;28;19931;-47
2023/08/14 12:57:58;;;;;;;;;;;24.70;73.20;;;;;;4164935;28;20131;-42
2023/08/14 13:00:45;;;;;;;;;;;24.70;72.30;;;;;;4147962;28;20389;-45
2023/08/14 13:03:27;;;;;;;;;;;24.70;72.30;;;;;;4153570;28;19936;-44
2023/08/14 13:06:14;;;;;;;;;;;24.70;72.30;;;;;;4154190;28;19932;-44
2023/08/14 13:08:57;;;;;;;;;;;24.70;72.20;;;;;;4145202;28;19936;-43
2023/08/14 13:11:42;;;;;;;;;;;24.70;72.20;;;;;;4121878;28;19932;-45
2023/08/14 13:14:26;;;;;;;;;;;24.70;72.10;;;;;;4132570;28;20701;-43
2023/08/14 13:17:06;;;;;;;;;;;24.70;72.10;;;;;;4153758;28;19972;-45
2023/08/14 13:19:49;;;;;;;;;;;24.70;72.80;;;;;;4154570;28;19936;-44
2023/08/14 13:22:30;;;;;;;;;;;24.70;71.90;;;;;;4153260;28;19932;-43
2023/08/14 13:25:10;;;;;;;;;;;24.70;71.80;;;;;;4154168;28;20648;-45
2023/08/14 13:27:51;;;;;;;;;;;24.80;72.70;;;;;;4139605;28;20324;-45
2023/08/14 13:30:33;;;;;;;;;;;24.80;71.70;;;;;;4153067;28;19940;-44
2023/08/14 13:33:14;;;;;;;;;;;24.80;71.80;;;;;;4147905;28;19936;-42
2023/08/14 13:35:57;;;;;;;;;;;24.80;72.70;;;;;;4153905;28;19936;-46
2023/08/14 13:38:38;;;;;;;;;;;24.90;71.80;;;;;;4138111;28;19936;-45
2023/08/14 13:41:19;;;;;;;;;;;24.90;71.70;;;;;;4146286;28;20408;-46
2023/08/14 13:44:00;;;;;;;;;;;25.00;72.80;;;;;;4153750;28;20280;-45
2023/08/14 13:46:41;;;;;;;;;;;25.00;72.10;;;;;;4170520;28;19932;-50
2023/08/14 13:49:22;;;;;;;;;;;25.00;72.00;;;;;;4170726;28;19936;-44
2023/08/14 13:52:04;;;;;;;;;;;25.10;71.80;;;;;;4147632;28;19932;-44
2023/08/14 13:54:45;;;;;;;;;;;25.10;71.60;;;;;;4130715;28;19936;-42
2023/08/14 13:57:28;;;;;;;;;;;25.20;71.10;;;;;;4149013;28;19932;-44
2023/08/14 14:00:10;;;;;;;;;;;25.20;70.80;;;;;;4147521;28;19940;-45
2023/08/14 14:02:51;;;;;;;;;;;25.20;70.60;;;;;;4166626;28;20581;-41
2023/08/14 14:05:32;;;;;;;;;;;25.30;70.50;;;;;;4132054;28;20018;-41
2023/08/14 14:08:14;;;;;;;;;;;25.30;69.90;;;;;;4173347;28;19932;-47
2023/08/14 14:10:55;;;;;;;;;;;25.30;69.40;;;;;;4164809;28;19936;-43
2023/08/14 14:13:35;;;;;;;;;;;25.30;69.20;;;;;;4156883;28;19932;-46
2023/08/14 14:16:16;;;;;;;;;;;25.30;69.20;;;;;;4155534;28;19936;-42
2023/08/14 14:18:56;;;;;;;;;;;25.40;69.30;;;;;;4140693;28;20067;-48
2023/08/14 14:21:37;;;;;;;;;;;25.40;69.60;;;;;;4140063;28;19947;-45
2023/08/14 14:24:18;;;;;;;;;;;25.40;70.00;;;;;;4134648;28;19937;-47
2023/08/14 14:26:59;;;;;;;;;;;25.40;70.30;;;;;;4140662;28;19940;-43
2023/08/14 14:29:40;;;;;;;;;;;25.40;70.30;;;;;;4125845;28;19936;-42
2023/08/14 14:32:21;;;;;;;;;;;25.40;70.30;;;;;;4140828;28;20388;-42
2023/08/14 14:35:02;;;;;;;;;;;25.50;70.30;;;;;;4140610;28;19936;-42
2023/08/14 14:37:43;;;;;;;;;;;25.50;70.00;;;;;;4125839;28;20044;-43
2023/08/14 14:40:25;;;;;;;;;;;25.50;69.70;;;;;;4140288;28;19948;-44
2023/08/14 14:43:07;;;;;;;;;;;25.50;70.60;;;;;;4140537;28;19937;-43
2023/08/14 14:45:48;;;;;;;;;;;25.50;69.60;;;;;;4130456;28;20471;-42
2023/08/14 14:48:28;;;;;;;;;;;25.50;69.50;;;;;;4140117;28;20300;-44
2023/08/14 14:51:09;;;;;;;;;;;25.50;70.30;;;;;;4138562;28;20007;-42
2023/08/14 14:53:50;;;;;;;;;;;25.50;69.30;;;;;;4140484;28;20438;-44
2023/08/14 14:56:32;;;;;;;;;;;25.60;69.20;;;;;;4153662;28;19983;-43
2023/08/14 14:59:13;;;;;;;;;;;25.60;68.80;;;;;;4156319;28;19987;-42
2023/08/14 15:01:53;;;;;;;;;;;25.60;68.80;;;;;;4156919;28;19932;-43
2023/08/14 15:04:34;;;;;;;;;;;25.60;68.80;;;;;;4156381;28;19936;-43
2023/08/14 15:07:14;;;;;;;;;;;25.60;68.70;;;;;;4153944;28;19932;-42
2023/08/14 15:09:55;;;;;;;;;;;25.60;68.40;;;;;;4156341;28;19936;-42
2023/08/14 15:12:37;;;;;;;;;;;25.60;68.70;;;;;;4156488;28;19932;-43
2023/08/14 15:15:18;;;;;;;;;;;25.60;68.70;;;;;;4147214;28;20463;-42
2023/08/14 15:17:59;;;;;;;;;;;25.60;69.30;;;;;;4153545;28;19995;-42
2023/08/14 15:20:40;;;;;;;;;;;25.70;68.40;;;;;;4155547;28;19944;-41
2023/08/14 15:23:21;;;;;;;;;;;25.60;68.20;;;;;;4155665;28;19932;-43
2023/08/14 15:26:01;;;;;;;;;;;25.70;68.20;;;;;;4155436;28;19935;-41
2023/08/14 15:28:43;;;;;;;;;;;25.70;69.00;;;;;;4155498;28;20063;-42
2023/08/14 15:31:24;;;;;;;;;;;25.70;67.90;;;;;;4155491;28;19932;-41
2023/08/14 15:34:05;;;;;;;;;;;25.70;67.70;;;;;;4155734;28;19936;-42
2023/08/14 15:36:46;;;;;;;;;;;25.70;67.60;;;;;;4155091;28;19952;-41
2023/08/14 15:39:29;;;;;;;;;;;25.70;67.50;;;;;;4154285;28;20037;-43